Cairo, Ohio
Current Conditions -  °F | °C
As of 8:53 PM on Thursday 20 Nov 2014 (Local Time) from KAOH Reporting Station
Few Clouds Few Clouds  
Wind Chill: 12°   Ceiling: Unl
Heat Index: 23°   Visibility: 10mi
Dew Point: 15°   Wind: 12mph
Humidity: 72%   Direction: 250°WSW
Pressure: 30.13"   Gusts: NA
Location:  40.83°N, 84.09°W
Report Text: KAOH 210153Z AUTO 25010KT 10SM FEW049 M05/M09 A3013 RMK AO2 SLP218 T10501094
Loading
Personal Weather Stations






























Interactive Weather Map New forecast layout! Learn more

10-Day Weather Forecast

Advertisements
Track Severe Weather on mobile